sensor_id;sensor_type;location;lat;lon;timestamp;P1;durP1;ratioP1;P2;durP2;ratioP2
20945;SDS011;10632;51.276;7.116;2024-02-14T00:01:32;3.17;;;0.77;;
20945;SDS011;10632;51.276;7.116;2024-02-14T00:03:59;2.75;;;0.73;;
20945;SDS011;10632;51.276;7.116;2024-02-14T00:06:25;2.85;;;0.60;;
20945;SDS011;10632;51.276;7.116;2024-02-14T00:08:52;5.35;;;0.88;;
20945;SDS011;10632;51.276;7.116;2024-02-14T00:11:19;1.65;;;0.80;;
20945;SDS011;10632;51.276;7.116;2024-02-14T00:13:46;3.95;;;0.65;;
20945;SDS011;10632;51.276;7.116;2024-02-14T00:16:15;3.88;;;0.73;;
20945;SDS011;10632;51.276;7.116;2024-02-14T00:18:43;2.03;;;0.50;;
20945;SDS011;10632;51.276;7.116;2024-02-14T00:21:10;1.70;;;0.68;;
20945;SDS011;10632;51.276;7.116;2024-02-14T00:23:38;2.00;;;0.63;;
20945;SDS011;10632;51.276;7.116;2024-02-14T00:26:04;6.03;;;0.77;;
20945;SDS011;10632;51.276;7.116;2024-02-14T00:28:32;1.60;;;0.68;;
20945;SDS011;10632;51.276;7.116;2024-02-14T00:31:02;1.30;;;0.50;;
20945;SDS011;10632;51.276;7.116;2024-02-14T00:33:34;3.70;;;0.98;;
20945;SDS011;10632;51.276;7.116;2024-02-14T00:36:05;1.95;;;0.70;;
20945;SDS011;10632;51.276;7.116;2024-02-14T00:38:32;1.00;;;0.47;;
20945;SDS011;10632;51.276;7.116;2024-02-14T00:40:59;2.47;;;0.65;;
20945;SDS011;10632;51.276;7.116;2024-02-14T00:43:26;2.15;;;0.60;;
20945;SDS011;10632;51.276;7.116;2024-02-14T00:45:53;1.05;;;0.50;;
20945;SDS011;10632;51.276;7.116;2024-02-14T00:48:21;1.45;;;0.80;;
20945;SDS011;10632;51.276;7.116;2024-02-14T00:50:48;1.73;;;0.63;;
20945;SDS011;10632;51.276;7.116;2024-02-14T00:53:18;6.05;;;0.95;;
20945;SDS011;10632;51.276;7.116;2024-02-14T00:55:47;3.38;;;1.00;;
20945;SDS011;10632;51.276;7.116;2024-02-14T00:58:13;1.70;;;0.63;;
20945;SDS011;10632;51.276;7.116;2024-02-14T01:00:40;1.05;;;0.43;;
20945;SDS011;10632;51.276;7.116;2024-02-14T01:03:08;0.70;;;0.43;;
20945;SDS011;10632;51.276;7.116;2024-02-14T01:05:38;1.85;;;0.70;;
20945;SDS011;10632;51.276;7.116;2024-02-14T01:08:05;1.20;;;0.45;;
20945;SDS011;10632;51.276;7.116;2024-02-14T01:10:33;10.45;;;0.50;;
20945;SDS011;10632;51.276;7.116;2024-02-14T01:13:00;2.08;;;0.63;;
20945;SDS011;10632;51.276;7.116;2024-02-14T01:15:27;1.23;;;0.70;;
20945;SDS011;10632;51.276;7.116;2024-02-14T01:17:54;1.38;;;0.63;;
20945;SDS011;10632;51.276;7.116;2024-02-14T01:20:21;0.85;;;0.35;;
20945;SDS011;10632;51.276;7.116;2024-02-14T01:22:49;3.22;;;0.50;;
20945;SDS011;10632;51.276;7.116;2024-02-14T01:25:16;1.38;;;0.77;;
20945;SDS011;10632;51.276;7.116;2024-02-14T01:27:44;1.13;;;0.40;;
20945;SDS011;10632;51.276;7.116;2024-02-14T01:30:14;1.45;;;0.50;;
20945;SDS011;10632;51.276;7.116;2024-02-14T01:32:41;1.33;;;0.47;;
20945;SDS011;10632;51.276;7.116;2024-02-14T01:35:08;2.88;;;0.70;;
20945;SDS011;10632;51.276;7.116;2024-02-14T01:37:35;4.10;;;0.50;;
20945;SDS011;10632;51.276;7.116;2024-02-14T01:40:02;2.90;;;0.60;;
20945;SDS011;10632;51.276;7.116;2024-02-14T01:42:30;2.28;;;0.70;;
20945;SDS011;10632;51.276;7.116;2024-02-14T01:44:58;1.88;;;0.70;;
20945;SDS011;10632;51.276;7.116;2024-02-14T01:47:25;1.55;;;0.40;;
20945;SDS011;10632;51.276;7.116;2024-02-14T01:49:52;3.17;;;0.70;;
20945;SDS011;10632;51.276;7.116;2024-02-14T01:52:19;1.35;;;0.47;;
20945;SDS011;10632;51.276;7.116;2024-02-14T01:54:47;0.63;;;0.30;;
20945;SDS011;10632;51.276;7.116;2024-02-14T01:57:14;1.27;;;0.43;;
20945;SDS011;10632;51.276;7.116;2024-02-14T01:59:41;1.50;;;0.60;;
20945;SDS011;10632;51.276;7.116;2024-02-14T02:02:10;1.25;;;0.57;;
20945;SDS011;10632;51.276;7.116;2024-02-14T02:04:37;2.33;;;0.60;;
20945;SDS011;10632;51.276;7.116;2024-02-14T02:07:04;0.77;;;0.38;;
20945;SDS011;10632;51.276;7.116;2024-02-14T02:09:31;1.90;;;0.73;;
20945;SDS011;10632;51.276;7.116;2024-02-14T02:12:01;4.45;;;0.60;;
20945;SDS011;10632;51.276;7.116;2024-02-14T02:14:31;1.13;;;0.50;;
20945;SDS011;10632;51.276;7.116;2024-02-14T02:16:58;0.65;;;0.35;;
20945;SDS011;10632;51.276;7.116;2024-02-14T02:19:27;1.17;;;0.57;;
20945;SDS011;10632;51.276;7.116;2024-02-14T02:21:54;0.93;;;0.30;;
20945;SDS011;10632;51.276;7.116;2024-02-14T02:24:22;0.95;;;0.43;;
20945;SDS011;10632;51.276;7.116;2024-02-14T02:26:49;1.40;;;0.40;;
20945;SDS011;10632;51.276;7.116;2024-02-14T02:29:15;0.63;;;0.32;;
20945;SDS011;10632;51.276;7.116;2024-02-14T02:31:44;1.77;;;0.40;;
20945;SDS011;10632;51.276;7.116;2024-02-14T02:34:12;0.82;;;0.47;;
20945;SDS011;10632;51.276;7.116;2024-02-14T02:36:41;1.10;;;0.47;;
20945;SDS011;10632;51.276;7.116;2024-02-14T02:39:10;1.38;;;0.40;;
20945;SDS011;10632;51.276;7.116;2024-02-14T02:41:47;2.05;;;0.40;;
20945;SDS011;10632;51.276;7.116;2024-02-14T02:44:15;2.95;;;0.63;;
20945;SDS011;10632;51.276;7.116;2024-02-14T02:46:41;1.10;;;0.40;;
20945;SDS011;10632;51.276;7.116;2024-02-14T02:49:10;0.82;;;0.45;;
20945;SDS011;10632;51.276;7.116;2024-02-14T02:51:39;1.10;;;0.35;;
20945;SDS011;10632;51.276;7.116;2024-02-14T02:54:05;2.33;;;0.73;;
20945;SDS011;10632;51.276;7.116;2024-02-14T02:56:33;1.92;;;0.50;;
20945;SDS011;10632;51.276;7.116;2024-02-14T02:59:02;0.70;;;0.32;;
20945;SDS011;10632;51.276;7.116;2024-02-14T03:01:34;1.08;;;0.40;;
20945;SDS011;10632;51.276;7.116;2024-02-14T03:04:01;1.15;;;0.50;;
20945;SDS011;10632;51.276;7.116;2024-02-14T03:06:28;0.40;;;0.30;;
20945;SDS011;10632;51.276;7.116;2024-02-14T03:08:55;3.45;;;0.75;;
20945;SDS011;10632;51.276;7.116;2024-02-14T03:11:23;0.80;;;0.52;;
20945;SDS011;10632;51.276;7.116;2024-02-14T03:13:52;5.00;;;0.70;;
20945;SDS011;10632;51.276;7.116;2024-02-14T03:16:20;1.98;;;0.30;;
20945;SDS011;10632;51.276;7.116;2024-02-14T03:18:49;1.67;;;0.50;;
20945;SDS011;10632;51.276;7.116;2024-02-14T03:21:17;4.82;;;0.38;;
20945;SDS011;10632;51.276;7.116;2024-02-14T03:23:44;0.40;;;0.20;;
20945;SDS011;10632;51.276;7.116;2024-02-14T03:26:11;0.75;;;0.30;;
20945;SDS011;10632;51.276;7.116;2024-02-14T03:28:38;0.60;;;0.43;;
20945;SDS011;10632;51.276;7.116;2024-02-14T03:31:05;0.70;;;0.32;;
20945;SDS011;10632;51.276;7.116;2024-02-14T03:33:33;0.93;;;0.40;;
20945;SDS011;10632;51.276;7.116;2024-02-14T03:36:00;0.43;;;0.28;;
20945;SDS011;10632;51.276;7.116;2024-02-14T03:38:28;1.65;;;0.40;;
20945;SDS011;10632;51.276;7.116;2024-02-14T03:40:56;0.50;;;0.20;;
20945;SDS011;10632;51.276;7.116;2024-02-14T03:43:23;1.10;;;0.43;;
20945;SDS011;10632;51.276;7.116;2024-02-14T03:45:50;1.38;;;0.55;;
20945;SDS011;10632;51.276;7.116;2024-02-14T03:48:17;5.10;;;0.50;;
20945;SDS011;10632;51.276;7.116;2024-02-14T03:50:45;0.82;;;0.38;;
20945;SDS011;10632;51.276;7.116;2024-02-14T03:53:13;0.75;;;0.35;;
20945;SDS011;10632;51.276;7.116;2024-02-14T03:55:40;2.35;;;0.57;;
20945;SDS011;10632;51.276;7.116;2024-02-14T03:58:07;3.13;;;0.60;;
20945;SDS011;10632;51.276;7.116;2024-02-14T04:00:34;1.27;;;0.50;;
20945;SDS011;10632;51.276;7.116;2024-02-14T04:03:01;1.20;;;0.50;;
20945;SDS011;10632;51.276;7.116;2024-02-14T04:05:28;0.85;;;0.45;;
20945;SDS011;10632;51.276;7.116;2024-02-14T04:07:57;1.23;;;0.40;;
20945;SDS011;10632;51.276;7.116;2024-02-14T04:10:23;1.17;;;0.43;;
20945;SDS011;10632;51.276;7.116;2024-02-14T04:12:50;0.50;;;0.30;;
20945;SDS011;10632;51.276;7.116;2024-02-14T04:15:17;1.95;;;0.57;;
20945;SDS011;10632;51.276;7.116;2024-02-14T04:17:44;1.75;;;0.50;;
20945;SDS011;10632;51.276;7.116;2024-02-14T04:20:11;0.82;;;0.52;;
20945;SDS011;10632;51.276;7.116;2024-02-14T04:22:38;2.65;;;0.50;;
20945;SDS011;10632;51.276;7.116;2024-02-14T04:25:08;1.23;;;0.63;;
20945;SDS011;10632;51.276;7.116;2024-02-14T04:27:35;1.48;;;0.70;;
20945;SDS011;10632;51.276;7.116;2024-02-14T04:30:06;1.13;;;0.55;;
20945;SDS011;10632;51.276;7.116;2024-02-14T04:32:34;3.63;;;1.13;;
20945;SDS011;10632;51.276;7.116;2024-02-14T04:35:01;2.42;;;0.40;;
20945;SDS011;10632;51.276;7.116;2024-02-14T04:37:29;1.23;;;0.40;;
20945;SDS011;10632;51.276;7.116;2024-02-14T04:39:58;1.90;;;0.70;;
20945;SDS011;10632;51.276;7.116;2024-02-14T04:42:31;1.08;;;0.50;;
20945;SDS011;10632;51.276;7.116;2024-02-14T04:44:59;4.55;;;0.85;;
20945;SDS011;10632;51.276;7.116;2024-02-14T04:47:29;2.47;;;0.77;;
20945;SDS011;10632;51.276;7.116;2024-02-14T04:50:05;2.70;;;0.70;;
20945;SDS011;10632;51.276;7.116;2024-02-14T04:53:04;1.38;;;0.40;;
20945;SDS011;10632;51.276;7.116;2024-02-14T04:55:32;1.55;;;0.45;;
20945;SDS011;10632;51.276;7.116;2024-02-14T04:58:20;1.63;;;0.55;;
20945;SDS011;10632;51.276;7.116;2024-02-14T05:01:00;2.90;;;0.55;;
20945;SDS011;10632;51.276;7.116;2024-02-14T05:03:33;1.95;;;0.73;;
20945;SDS011;10632;51.276;7.116;2024-02-14T05:06:14;0.90;;;0.45;;
20945;SDS011;10632;51.276;7.116;2024-02-14T05:09:18;0.77;;;0.32;;
20945;SDS011;10632;51.276;7.116;2024-02-14T05:11:54;0.73;;;0.40;;
20945;SDS011;10632;51.276;7.116;2024-02-14T05:17:30;1.48;;;0.50;;
20945;SDS011;10632;51.276;7.116;2024-02-14T05:20:09;1.85;;;0.55;;
20945;SDS011;10632;51.276;7.116;2024-02-14T05:22:54;0.85;;;0.40;;
20945;SDS011;10632;51.276;7.116;2024-02-14T05:28:52;1.02;;;0.45;;
20945;SDS011;10632;51.276;7.116;2024-02-14T05:34:47;6.95;;;0.80;;
20945;SDS011;10632;51.276;7.116;2024-02-14T05:41:08;2.33;;;0.80;;
20945;SDS011;10632;51.276;7.116;2024-02-14T05:43:44;1.45;;;0.65;;
20945;SDS011;10632;51.276;7.116;2024-02-14T05:46:12;2.53;;;0.88;;
20945;SDS011;10632;51.276;7.116;2024-02-14T05:48:43;4.05;;;0.95;;
20945;SDS011;10632;51.276;7.116;2024-02-14T05:51:20;1.85;;;0.90;;
20945;SDS011;10632;51.276;7.116;2024-02-14T05:58:09;2.08;;;0.80;;
20945;SDS011;10632;51.276;7.116;2024-02-14T06:17:12;2.38;;;0.85;;
20945;SDS011;10632;51.276;7.116;2024-02-14T06:19:39;2.67;;;1.05;;
20945;SDS011;10632;51.276;7.116;2024-02-14T06:22:06;3.22;;;0.90;;
20945;SDS011;10632;51.276;7.116;2024-02-14T06:24:33;3.53;;;1.45;;
20945;SDS011;10632;51.276;7.116;2024-02-14T06:26:59;2.03;;;0.93;;
20945;SDS011;10632;51.276;7.116;2024-02-14T06:29:26;2.97;;;1.38;;
20945;SDS011;10632;51.276;7.116;2024-02-14T06:31:53;3.30;;;1.40;;
20945;SDS011;10632;51.276;7.116;2024-02-14T06:34:21;4.30;;;1.67;;
20945;SDS011;10632;51.276;7.116;2024-02-14T06:36:48;4.82;;;1.70;;
20945;SDS011;10632;51.276;7.116;2024-02-14T06:39:15;3.20;;;1.42;;
20945;SDS011;10632;51.276;7.116;2024-02-14T06:41:42;6.32;;;1.92;;
20945;SDS011;10632;51.276;7.116;2024-02-14T06:44:10;4.95;;;1.80;;
20945;SDS011;10632;51.276;7.116;2024-02-14T06:46:37;4.57;;;1.70;;
20945;SDS011;10632;51.276;7.116;2024-02-14T06:49:04;3.53;;;1.65;;
20945;SDS011;10632;51.276;7.116;2024-02-14T06:51:32;4.97;;;1.58;;
20945;SDS011;10632;51.276;7.116;2024-02-14T06:53:59;4.43;;;1.98;;
20945;SDS011;10632;51.276;7.116;2024-02-14T06:56:26;10.82;;;1.95;;
20945;SDS011;10632;51.276;7.116;2024-02-14T06:58:55;5.63;;;2.08;;
20945;SDS011;10632;51.276;7.116;2024-02-14T07:01:25;3.05;;;1.13;;
20945;SDS011;10632;51.276;7.116;2024-02-14T07:03:54;5.03;;;1.83;;
20945;SDS011;10632;51.276;7.116;2024-02-14T07:06:21;5.32;;;1.35;;
20945;SDS011;10632;51.276;7.116;2024-02-14T07:08:49;4.18;;;1.55;;
20945;SDS011;10632;51.276;7.116;2024-02-14T07:11:16;4.32;;;1.58;;
20945;SDS011;10632;51.276;7.116;2024-02-14T07:13:43;3.53;;;1.45;;
20945;SDS011;10632;51.276;7.116;2024-02-14T07:16:10;4.70;;;2.10;;
20945;SDS011;10632;51.276;7.116;2024-02-14T07:18:37;6.32;;;1.52;;
20945;SDS011;10632;51.276;7.116;2024-02-14T07:21:04;2.83;;;1.48;;
20945;SDS011;10632;51.276;7.116;2024-02-14T07:23:31;3.38;;;1.75;;
20945;SDS011;10632;51.276;7.116;2024-02-14T07:26:00;8.60;;;2.00;;
20945;SDS011;10632;51.276;7.116;2024-02-14T07:28:29;4.47;;;1.88;;
20945;SDS011;10632;51.276;7.116;2024-02-14T07:30:57;3.90;;;1.95;;
20945;SDS011;10632;51.276;7.116;2024-02-14T07:33:24;4.25;;;2.03;;
20945;SDS011;10632;51.276;7.116;2024-02-14T07:35:51;6.78;;;2.10;;
20945;SDS011;10632;51.276;7.116;2024-02-14T07:38:17;4.97;;;1.75;;
20945;SDS011;10632;51.276;7.116;2024-02-14T07:40:44;5.20;;;1.70;;
20945;SDS011;10632;51.276;7.116;2024-02-14T07:43:12;4.07;;;1.80;;
20945;SDS011;10632;51.276;7.116;2024-02-14T07:45:39;2.85;;;1.30;;
20945;SDS011;10632;51.276;7.116;2024-02-14T07:48:06;4.63;;;1.60;;
20945;SDS011;10632;51.276;7.116;2024-02-14T07:50:34;4.30;;;1.73;;
20945;SDS011;10632;51.276;7.116;2024-02-14T07:53:02;3.00;;;1.40;;
20945;SDS011;10632;51.276;7.116;2024-02-14T07:55:28;4.05;;;1.30;;
20945;SDS011;10632;51.276;7.116;2024-02-14T07:57:55;2.95;;;1.30;;
20945;SDS011;10632;51.276;7.116;2024-02-14T08:00:24;3.30;;;1.20;;
20945;SDS011;10632;51.276;7.116;2024-02-14T08:02:50;4.78;;;1.50;;
20945;SDS011;10632;51.276;7.116;2024-02-14T08:05:18;3.58;;;1.52;;
20945;SDS011;10632;51.276;7.116;2024-02-14T08:07:44;3.17;;;1.35;;
20945;SDS011;10632;51.276;7.116;2024-02-14T08:10:14;5.65;;;1.17;;
20945;SDS011;10632;51.276;7.116;2024-02-14T08:12:41;3.28;;;1.15;;
20945;SDS011;10632;51.276;7.116;2024-02-14T08:15:09;3.33;;;1.42;;
20945;SDS011;10632;51.276;7.116;2024-02-14T08:17:37;2.70;;;1.08;;
20945;SDS011;10632;51.276;7.116;2024-02-14T08:20:04;4.38;;;1.50;;
20945;SDS011;10632;51.276;7.116;2024-02-14T08:22:32;2.20;;;1.17;;
20945;SDS011;10632;51.276;7.116;2024-02-14T08:24:59;4.55;;;1.40;;
20945;SDS011;10632;51.276;7.116;2024-02-14T08:27:26;3.42;;;1.30;;
20945;SDS011;10632;51.276;7.116;2024-02-14T08:29:53;3.17;;;1.33;;
20945;SDS011;10632;51.276;7.116;2024-02-14T08:32:20;2.65;;;1.17;;
20945;SDS011;10632;51.276;7.116;2024-02-14T08:34:49;3.90;;;1.25;;
20945;SDS011;10632;51.276;7.116;2024-02-14T08:37:16;6.53;;;0.88;;
20945;SDS011;10632;51.276;7.116;2024-02-14T08:39:43;2.17;;;0.95;;
20945;SDS011;10632;51.276;7.116;2024-02-14T08:42:10;2.97;;;0.90;;
20945;SDS011;10632;51.276;7.116;2024-02-14T08:44:37;2.97;;;1.20;;
20945;SDS011;10632;51.276;7.116;2024-02-14T08:47:04;2.08;;;0.73;;
20945;SDS011;10632;51.276;7.116;2024-02-14T08:49:31;2.17;;;0.80;;
20945;SDS011;10632;51.276;7.116;2024-02-14T08:52:00;5.50;;;1.08;;
20945;SDS011;10632;51.276;7.116;2024-02-14T08:54:27;1.90;;;0.70;;
20945;SDS011;10632;51.276;7.116;2024-02-14T08:56:54;2.63;;;1.20;;
20945;SDS011;10632;51.276;7.116;2024-02-14T08:59:23;2.33;;;1.00;;
20945;SDS011;10632;51.276;7.116;2024-02-14T09:01:50;1.92;;;0.93;;
20945;SDS011;10632;51.276;7.116;2024-02-14T09:04:17;2.22;;;1.02;;
20945;SDS011;10632;51.276;7.116;2024-02-14T09:06:44;1.83;;;0.90;;
20945;SDS011;10632;51.276;7.116;2024-02-14T09:09:12;1.55;;;0.88;;
20945;SDS011;10632;51.276;7.116;2024-02-14T09:11:44;1.42;;;0.77;;
20945;SDS011;10632;51.276;7.116;2024-02-14T09:14:11;2.72;;;1.00;;
20945;SDS011;10632;51.276;7.116;2024-02-14T09:16:38;1.90;;;0.80;;
20945;SDS011;10632;51.276;7.116;2024-02-14T09:19:05;1.38;;;0.60;;
20945;SDS011;10632;51.276;7.116;2024-02-14T09:21:33;1.77;;;0.68;;
20945;SDS011;10632;51.276;7.116;2024-02-14T09:24:00;2.38;;;1.00;;
20945;SDS011;10632;51.276;7.116;2024-02-14T09:26:32;2.45;;;0.93;;
20945;SDS011;10632;51.276;7.116;2024-02-14T09:28:59;1.95;;;0.80;;
20945;SDS011;10632;51.276;7.116;2024-02-14T09:31:26;2.30;;;1.05;;
20945;SDS011;10632;51.276;7.116;2024-02-14T09:33:52;4.03;;;0.93;;
20945;SDS011;10632;51.276;7.116;2024-02-14T09:36:23;3.70;;;1.10;;
20945;SDS011;10632;51.276;7.116;2024-02-14T09:38:50;3.80;;;0.95;;
20945;SDS011;10632;51.276;7.116;2024-02-14T09:41:21;1.42;;;0.70;;
20945;SDS011;10632;51.276;7.116;2024-02-14T09:43:53;0.88;;;0.52;;
20945;SDS011;10632;51.276;7.116;2024-02-14T09:46:19;1.88;;;0.73;;
20945;SDS011;10632;51.276;7.116;2024-02-14T09:48:52;2.13;;;0.95;;
20945;SDS011;10632;51.276;7.116;2024-02-14T09:51:20;2.85;;;0.80;;
20945;SDS011;10632;51.276;7.116;2024-02-14T09:53:50;1.42;;;0.60;;
20945;SDS011;10632;51.276;7.116;2024-02-14T09:56:21;1.98;;;0.90;;
20945;SDS011;10632;51.276;7.116;2024-02-14T09:58:49;3.55;;;1.08;;
20945;SDS011;10632;51.276;7.116;2024-02-14T10:01:22;1.58;;;0.98;;
20945;SDS011;10632;51.276;7.116;2024-02-14T10:03:49;1.88;;;0.93;;
20945;SDS011;10632;51.276;7.116;2024-02-14T10:06:17;3.38;;;1.08;;
20945;SDS011;10632;51.276;7.116;2024-02-14T10:08:45;1.73;;;0.70;;
20945;SDS011;10632;51.276;7.116;2024-02-14T10:11:13;1.95;;;0.77;;
20945;SDS011;10632;51.276;7.116;2024-02-14T10:13:43;2.88;;;1.30;;
20945;SDS011;10632;51.276;7.116;2024-02-14T10:16:12;1.98;;;0.77;;
20945;SDS011;10632;51.276;7.116;2024-02-14T10:18:40;3.40;;;1.05;;
20945;SDS011;10632;51.276;7.116;2024-02-14T10:21:08;2.70;;;0.80;;
20945;SDS011;10632;51.276;7.116;2024-02-14T10:23:42;2.38;;;1.00;;
20945;SDS011;10632;51.276;7.116;2024-02-14T10:26:10;1.92;;;0.80;;
20945;SDS011;10632;51.276;7.116;2024-02-14T10:28:40;2.38;;;0.90;;
20945;SDS011;10632;51.276;7.116;2024-02-14T10:31:07;3.70;;;0.80;;
20945;SDS011;10632;51.276;7.116;2024-02-14T10:33:38;6.40;;;1.70;;
20945;SDS011;10632;51.276;7.116;2024-02-14T10:36:07;5.03;;;1.90;;
20945;SDS011;10632;51.276;7.116;2024-02-14T10:38:40;2.75;;;0.98;;
20945;SDS011;10632;51.276;7.116;2024-02-14T10:41:10;4.30;;;1.10;;
20945;SDS011;10632;51.276;7.116;2024-02-14T10:43:40;2.45;;;1.00;;
20945;SDS011;10632;51.276;7.116;2024-02-14T10:46:09;5.95;;;1.10;;
20945;SDS011;10632;51.276;7.116;2024-02-14T10:48:43;3.10;;;1.40;;
20945;SDS011;10632;51.276;7.116;2024-02-14T10:51:12;1.65;;;0.85;;
20945;SDS011;10632;51.276;7.116;2024-02-14T10:53:41;2.47;;;1.05;;
20945;SDS011;10632;51.276;7.116;2024-02-14T10:56:11;2.65;;;0.90;;
20945;SDS011;10632;51.276;7.116;2024-02-14T10:58:43;3.05;;;0.80;;
20945;SDS011;10632;51.276;7.116;2024-02-14T11:01:12;3.10;;;0.93;;
20945;SDS011;10632;51.276;7.116;2024-02-14T11:03:41;2.40;;;1.00;;
20945;SDS011;10632;51.276;7.116;2024-02-14T11:06:14;2.60;;;1.27;;
20945;SDS011;10632;51.276;7.116;2024-02-14T11:08:54;3.83;;;0.90;;
20945;SDS011;10632;51.276;7.116;2024-02-14T11:11:22;2.85;;;1.23;;
20945;SDS011;10632;51.276;7.116;2024-02-14T11:13:55;1.63;;;0.68;;
20945;SDS011;10632;51.276;7.116;2024-02-14T11:16:23;1.77;;;0.88;;
20945;SDS011;10632;51.276;7.116;2024-02-14T11:18:53;2.53;;;0.93;;
20945;SDS011;10632;51.276;7.116;2024-02-14T11:21:27;3.22;;;0.80;;
20945;SDS011;10632;51.276;7.116;2024-02-14T11:24:03;3.58;;;0.85;;
20945;SDS011;10632;51.276;7.116;2024-02-14T11:26:37;2.25;;;0.60;;
20945;SDS011;10632;51.276;7.116;2024-02-14T11:29:13;1.73;;;0.80;;
20945;SDS011;10632;51.276;7.116;2024-02-14T11:31:42;2.92;;;0.80;;
20945;SDS011;10632;51.276;7.116;2024-02-14T11:34:11;2.00;;;0.60;;
20945;SDS011;10632;51.276;7.116;2024-02-14T11:36:40;7.13;;;1.13;;
20945;SDS011;10632;51.276;7.116;2024-02-14T11:39:08;1.50;;;0.75;;
20945;SDS011;10632;51.276;7.116;2024-02-14T11:41:37;3.28;;;1.00;;
20945;SDS011;10632;51.276;7.116;2024-02-14T11:44:05;4.43;;;1.58;;
20945;SDS011;10632;51.276;7.116;2024-02-14T11:46:39;2.85;;;1.30;;
20945;SDS011;10632;51.276;7.116;2024-02-14T11:49:07;2.72;;;1.00;;
20945;SDS011;10632;51.276;7.116;2024-02-14T11:51:34;1.77;;;0.80;;
20945;SDS011;10632;51.276;7.116;2024-02-14T11:54:03;6.80;;;1.25;;
20945;SDS011;10632;51.276;7.116;2024-02-14T11:56:32;3.38;;;1.17;;
20945;SDS011;10632;51.276;7.116;2024-02-14T11:58:59;2.55;;;1.10;;
20945;SDS011;10632;51.276;7.116;2024-02-14T12:01:28;3.88;;;1.38;;
20945;SDS011;10632;51.276;7.116;2024-02-14T12:03:56;1.60;;;0.90;;
20945;SDS011;10632;51.276;7.116;2024-02-14T12:06:23;4.18;;;1.13;;
20945;SDS011;10632;51.276;7.116;2024-02-14T12:08:51;6.22;;;1.58;;
20945;SDS011;10632;51.276;7.116;2024-02-14T12:11:19;4.40;;;1.40;;
20945;SDS011;10632;51.276;7.116;2024-02-14T12:13:48;5.00;;;1.52;;
20945;SDS011;10632;51.276;7.116;2024-02-14T12:16:16;9.07;;;1.02;;
20945;SDS011;10632;51.276;7.116;2024-02-14T12:18:45;3.20;;;1.08;;
20945;SDS011;10632;51.276;7.116;2024-02-14T12:21:15;2.67;;;1.00;;
20945;SDS011;10632;51.276;7.116;2024-02-14T12:23:42;2.08;;;1.10;;
20945;SDS011;10632;51.276;7.116;2024-02-14T12:26:09;3.75;;;1.10;;
20945;SDS011;10632;51.276;7.116;2024-02-14T12:28:45;2.38;;;0.60;;
20945;SDS011;10632;51.276;7.116;2024-02-14T12:31:21;3.50;;;0.82;;
20945;SDS011;10632;51.276;7.116;2024-02-14T12:33:48;3.05;;;0.85;;
20945;SDS011;10632;51.276;7.116;2024-02-14T12:36:15;5.57;;;0.80;;
20945;SDS011;10632;51.276;7.116;2024-02-14T12:38:42;2.13;;;0.80;;
20945;SDS011;10632;51.276;7.116;2024-02-14T12:41:09;4.57;;;1.20;;
20945;SDS011;10632;51.276;7.116;2024-02-14T12:43:36;2.25;;;0.88;;
20945;SDS011;10632;51.276;7.116;2024-02-14T12:46:05;2.78;;;0.85;;
20945;SDS011;10632;51.276;7.116;2024-02-14T12:48:32;1.67;;;0.90;;
20945;SDS011;10632;51.276;7.116;2024-02-14T12:50:59;2.47;;;0.80;;
20945;SDS011;10632;51.276;7.116;2024-02-14T12:53:26;2.50;;;1.08;;
20945;SDS011;10632;51.276;7.116;2024-02-14T12:55:53;1.70;;;0.80;;
20945;SDS011;10632;51.276;7.116;2024-02-14T12:58:20;2.20;;;0.80;;
20945;SDS011;10632;51.276;7.116;2024-02-14T13:00:47;1.63;;;0.70;;
20945;SDS011;10632;51.276;7.116;2024-02-14T13:03:15;1.65;;;0.68;;
20945;SDS011;10632;51.276;7.116;2024-02-14T13:05:42;1.13;;;0.50;;
20945;SDS011;10632;51.276;7.116;2024-02-14T13:08:09;3.90;;;1.10;;
20945;SDS011;10632;51.276;7.116;2024-02-14T13:10:36;2.13;;;0.90;;
20945;SDS011;10632;51.276;7.116;2024-02-14T13:13:03;1.60;;;0.80;;
20945;SDS011;10632;51.276;7.116;2024-02-14T13:15:30;2.25;;;0.80;;
20945;SDS011;10632;51.276;7.116;2024-02-14T13:17:57;3.20;;;0.77;;
20945;SDS011;10632;51.276;7.116;2024-02-14T13:20:26;3.85;;;1.25;;
20945;SDS011;10632;51.276;7.116;2024-02-14T13:22:56;2.42;;;1.17;;
20945;SDS011;10632;51.276;7.116;2024-02-14T13:25:23;2.97;;;1.13;;
20945;SDS011;10632;51.276;7.116;2024-02-14T13:27:51;3.58;;;1.08;;
20945;SDS011;10632;51.276;7.116;2024-02-14T13:30:19;2.22;;;1.17;;
20945;SDS011;10632;51.276;7.116;2024-02-14T13:32:46;3.00;;;1.50;;
20945;SDS011;10632;51.276;7.116;2024-02-14T13:35:13;3.30;;;1.20;;
20945;SDS011;10632;51.276;7.116;2024-02-14T13:37:45;2.88;;;1.20;;
20945;SDS011;10632;51.276;7.116;2024-02-14T13:40:12;2.75;;;1.08;;
20945;SDS011;10632;51.276;7.116;2024-02-14T13:42:42;2.13;;;0.90;;
20945;SDS011;10632;51.276;7.116;2024-02-14T13:45:09;3.08;;;1.10;;
20945;SDS011;10632;51.276;7.116;2024-02-14T13:47:36;2.08;;;0.70;;
20945;SDS011;10632;51.276;7.116;2024-02-14T13:50:05;5.15;;;1.40;;
20945;SDS011;10632;51.276;7.116;2024-02-14T13:52:33;2.97;;;1.15;;
20945;SDS011;10632;51.276;7.116;2024-02-14T13:55:02;2.97;;;1.30;;
20945;SDS011;10632;51.276;7.116;2024-02-14T13:57:30;2.47;;;0.90;;
20945;SDS011;10632;51.276;7.116;2024-02-14T13:59:57;3.95;;;1.35;;
20945;SDS011;10632;51.276;7.116;2024-02-14T14:02:24;1.90;;;1.00;;
20945;SDS011;10632;51.276;7.116;2024-02-14T14:04:51;3.00;;;1.10;;
20945;SDS011;10632;51.276;7.116;2024-02-14T14:07:18;5.13;;;0.85;;
20945;SDS011;10632;51.276;7.116;2024-02-14T14:09:45;2.38;;;1.05;;
20945;SDS011;10632;51.276;7.116;2024-02-14T14:12:13;2.72;;;0.93;;
20945;SDS011;10632;51.276;7.116;2024-02-14T14:14:40;3.33;;;0.80;;
20945;SDS011;10632;51.276;7.116;2024-02-14T14:17:07;1.10;;;0.65;;
20945;SDS011;10632;51.276;7.116;2024-02-14T14:19:34;3.80;;;1.30;;
20945;SDS011;10632;51.276;7.116;2024-02-14T14:22:04;1.02;;;0.70;;
20945;SDS011;10632;51.276;7.116;2024-02-14T14:24:31;3.03;;;1.20;;
20945;SDS011;10632;51.276;7.116;2024-02-14T14:26:58;2.72;;;0.90;;
20945;SDS011;10632;51.276;7.116;2024-02-14T14:29:26;3.13;;;1.08;;
20945;SDS011;10632;51.276;7.116;2024-02-14T14:31:54;1.73;;;0.80;;
20945;SDS011;10632;51.276;7.116;2024-02-14T14:34:21;1.42;;;0.68;;
20945;SDS011;10632;51.276;7.116;2024-02-14T14:36:48;2.30;;;0.70;;
20945;SDS011;10632;51.276;7.116;2024-02-14T14:39:15;2.10;;;0.77;;
20945;SDS011;10632;51.276;7.116;2024-02-14T14:41:42;2.67;;;0.90;;
20945;SDS011;10632;51.276;7.116;2024-02-14T14:44:08;2.33;;;0.80;;
20945;SDS011;10632;51.276;7.116;2024-02-14T14:46:38;4.38;;;0.90;;
20945;SDS011;10632;51.276;7.116;2024-02-14T14:49:07;2.03;;;0.80;;
20945;SDS011;10632;51.276;7.116;2024-02-14T14:51:34;2.10;;;0.77;;
20945;SDS011;10632;51.276;7.116;2024-02-14T14:54:03;1.70;;;0.80;;
20945;SDS011;10632;51.276;7.116;2024-02-14T14:56:30;1.52;;;0.65;;
20945;SDS011;10632;51.276;7.116;2024-02-14T14:58:57;2.20;;;0.82;;
20945;SDS011;10632;51.276;7.116;2024-02-14T15:01:25;2.55;;;1.15;;
20945;SDS011;10632;51.276;7.116;2024-02-14T15:03:54;2.00;;;0.90;;
20945;SDS011;10632;51.276;7.116;2024-02-14T15:06:21;2.25;;;1.10;;
20945;SDS011;10632;51.276;7.116;2024-02-14T15:08:48;3.03;;;1.20;;
20945;SDS011;10632;51.276;7.116;2024-02-14T15:11:15;2.45;;;0.80;;
20945;SDS011;10632;51.276;7.116;2024-02-14T15:13:43;2.63;;;1.10;;
20945;SDS011;10632;51.276;7.116;2024-02-14T15:16:10;2.30;;;0.82;;
20945;SDS011;10632;51.276;7.116;2024-02-14T15:18:38;1.77;;;1.00;;
20945;SDS011;10632;51.276;7.116;2024-02-14T15:21:07;1.33;;;0.50;;
20945;SDS011;10632;51.276;7.116;2024-02-14T15:23:33;1.45;;;0.73;;
20945;SDS011;10632;51.276;7.116;2024-02-14T15:26:00;2.83;;;0.70;;
20945;SDS011;10632;51.276;7.116;2024-02-14T15:28:29;2.05;;;0.98;;
20945;SDS011;10632;51.276;7.116;2024-02-14T15:30:56;2.03;;;0.90;;